sensor_id;sensor_type;location;lat;lon;timestamp;P1;durP1;ratioP1;P2;durP2;ratioP2
40150;SDS011;25866;52.420;10.640;2023-04-24T00:00:19;1.27;;;1.10;;
40150;SDS011;25866;52.420;10.640;2023-04-24T00:02:45;2.50;;;1.20;;
40150;SDS011;25866;52.420;10.640;2023-04-24T00:05:15;2.65;;;1.20;;
40150;SDS011;25866;52.420;10.640;2023-04-24T00:07:42;4.25;;;1.30;;
40150;SDS011;25866;52.420;10.640;2023-04-24T00:10:09;1.33;;;1.20;;
40150;SDS011;25866;52.420;10.640;2023-04-24T00:12:36;1.58;;;1.13;;
40150;SDS011;25866;52.420;10.640;2023-04-24T00:15:04;3.40;;;1.10;;
40150;SDS011;25866;52.420;10.640;2023-04-24T00:17:30;3.15;;;1.25;;
40150;SDS011;25866;52.420;10.640;2023-04-24T00:19:56;1.48;;;1.30;;
40150;SDS011;25866;52.420;10.640;2023-04-24T00:22:25;3.45;;;1.23;;
40150;SDS011;25866;52.420;10.640;2023-04-24T00:24:54;3.13;;;1.13;;
40150;SDS011;25866;52.420;10.640;2023-04-24T00:27:20;1.40;;;1.00;;
40150;SDS011;25866;52.420;10.640;2023-04-24T00:29:46;2.10;;;1.20;;
40150;SDS011;25866;52.420;10.640;2023-04-24T00:32:12;1.65;;;1.10;;
40150;SDS011;25866;52.420;10.640;2023-04-24T00:34:39;2.15;;;1.25;;
40150;SDS011;25866;52.420;10.640;2023-04-24T00:37:05;1.70;;;1.10;;
40150;SDS011;25866;52.420;10.640;2023-04-24T00:39:31;1.10;;;1.00;;
40150;SDS011;25866;52.420;10.640;2023-04-24T00:41:57;3.42;;;1.20;;
40150;SDS011;25866;52.420;10.640;2023-04-24T00:44:23;1.67;;;1.10;;
40150;SDS011;25866;52.420;10.640;2023-04-24T00:46:49;1.38;;;1.00;;
40150;SDS011;25866;52.420;10.640;2023-04-24T00:49:19;1.13;;;1.02;;
40150;SDS011;25866;52.420;10.640;2023-04-24T00:51:46;1.70;;;1.40;;
40150;SDS011;25866;52.420;10.640;2023-04-24T00:54:15;2.58;;;1.25;;
40150;SDS011;25866;52.420;10.640;2023-04-24T00:56:42;1.25;;;1.15;;
40150;SDS011;25866;52.420;10.640;2023-04-24T00:59:09;1.70;;;1.10;;
40150;SDS011;25866;52.420;10.640;2023-04-24T01:01:35;2.78;;;1.20;;
40150;SDS011;25866;52.420;10.640;2023-04-24T01:04:01;2.85;;;1.13;;
40150;SDS011;25866;52.420;10.640;2023-04-24T01:06:27;1.52;;;1.20;;
40150;SDS011;25866;52.420;10.640;2023-04-24T01:08:57;1.10;;;1.00;;
40150;SDS011;25866;52.420;10.640;2023-04-24T01:11:24;1.83;;;1.20;;
40150;SDS011;25866;52.420;10.640;2023-04-24T01:13:50;1.67;;;1.10;;
40150;SDS011;25866;52.420;10.640;2023-04-24T01:16:17;1.52;;;0.95;;
40150;SDS011;25866;52.420;10.640;2023-04-24T01:18:45;3.97;;;1.20;;
40150;SDS011;25866;52.420;10.640;2023-04-24T01:21:13;1.08;;;0.90;;
40150;SDS011;25866;52.420;10.640;2023-04-24T01:23:41;0.90;;;0.80;;
40150;SDS011;25866;52.420;10.640;2023-04-24T01:26:11;4.25;;;0.90;;
40150;SDS011;25866;52.420;10.640;2023-04-24T01:28:38;3.05;;;1.00;;
40150;SDS011;25866;52.420;10.640;2023-04-24T01:31:04;1.38;;;0.85;;
40150;SDS011;25866;52.420;10.640;2023-04-24T01:33:30;3.30;;;1.25;;
40150;SDS011;25866;52.420;10.640;2023-04-24T01:35:56;1.05;;;0.80;;
40150;SDS011;25866;52.420;10.640;2023-04-24T01:38:23;2.85;;;1.00;;
40150;SDS011;25866;52.420;10.640;2023-04-24T01:40:49;0.98;;;0.68;;
40150;SDS011;25866;52.420;10.640;2023-04-24T01:43:15;1.63;;;0.90;;
40150;SDS011;25866;52.420;10.640;2023-04-24T01:45:41;0.88;;;0.85;;
40150;SDS011;25866;52.420;10.640;2023-04-24T01:48:07;2.28;;;1.20;;
40150;SDS011;25866;52.420;10.640;2023-04-24T01:50:33;0.80;;;0.80;;
40150;SDS011;25866;52.420;10.640;2023-04-24T01:52:58;3.63;;;0.80;;
40150;SDS011;25866;52.420;10.640;2023-04-24T01:55:24;1.92;;;1.00;;
40150;SDS011;25866;52.420;10.640;2023-04-24T01:57:52;1.98;;;1.05;;
40150;SDS011;25866;52.420;10.640;2023-04-24T02:00:20;2.03;;;0.98;;
40150;SDS011;25866;52.420;10.640;2023-04-24T02:02:46;2.03;;;1.00;;
40150;SDS011;25866;52.420;10.640;2023-04-24T02:05:12;1.23;;;1.10;;
40150;SDS011;25866;52.420;10.640;2023-04-24T02:07:38;2.53;;;0.90;;
40150;SDS011;25866;52.420;10.640;2023-04-24T02:10:05;2.13;;;1.00;;
40150;SDS011;25866;52.420;10.640;2023-04-24T02:12:31;3.20;;;0.90;;
40150;SDS011;25866;52.420;10.640;2023-04-24T02:14:56;1.17;;;0.80;;
40150;SDS011;25866;52.420;10.640;2023-04-24T02:17:22;1.90;;;0.93;;
40150;SDS011;25866;52.420;10.640;2023-04-24T02:19:48;1.40;;;0.90;;
40150;SDS011;25866;52.420;10.640;2023-04-24T02:22:14;1.13;;;0.90;;
40150;SDS011;25866;52.420;10.640;2023-04-24T02:24:40;2.17;;;1.05;;
40150;SDS011;25866;52.420;10.640;2023-04-24T02:27:06;2.95;;;1.00;;
40150;SDS011;25866;52.420;10.640;2023-04-24T02:29:32;1.60;;;0.90;;
40150;SDS011;25866;52.420;10.640;2023-04-24T02:31:58;1.67;;;0.90;;
40150;SDS011;25866;52.420;10.640;2023-04-24T02:34:23;2.03;;;1.17;;
40150;SDS011;25866;52.420;10.640;2023-04-24T02:36:49;1.20;;;0.98;;
40150;SDS011;25866;52.420;10.640;2023-04-24T02:39:15;0.90;;;0.85;;
40150;SDS011;25866;52.420;10.640;2023-04-24T02:41:41;2.72;;;1.10;;
40150;SDS011;25866;52.420;10.640;2023-04-24T02:44:08;1.70;;;0.80;;
40150;SDS011;25866;52.420;10.640;2023-04-24T02:46:34;1.90;;;1.20;;
40150;SDS011;25866;52.420;10.640;2023-04-24T02:49:00;2.25;;;1.08;;
40150;SDS011;25866;52.420;10.640;2023-04-24T02:51:26;1.80;;;1.10;;
40150;SDS011;25866;52.420;10.640;2023-04-24T02:53:52;1.65;;;1.00;;
40150;SDS011;25866;52.420;10.640;2023-04-24T02:56:17;3.30;;;1.00;;
40150;SDS011;25866;52.420;10.640;2023-04-24T02:58:43;2.33;;;1.00;;
40150;SDS011;25866;52.420;10.640;2023-04-24T03:01:09;2.47;;;1.05;;
40150;SDS011;25866;52.420;10.640;2023-04-24T03:03:35;4.60;;;1.10;;
40150;SDS011;25866;52.420;10.640;2023-04-24T03:06:01;1.58;;;1.10;;
40150;SDS011;25866;52.420;10.640;2023-04-24T03:08:27;1.17;;;1.08;;
40150;SDS011;25866;52.420;10.640;2023-04-24T03:10:53;1.70;;;1.00;;
40150;SDS011;25866;52.420;10.640;2023-04-24T03:13:18;2.00;;;1.00;;
40150;SDS011;25866;52.420;10.640;2023-04-24T03:15:44;1.40;;;0.95;;
40150;SDS011;25866;52.420;10.640;2023-04-24T03:18:11;1.63;;;1.00;;
40150;SDS011;25866;52.420;10.640;2023-04-24T03:20:37;1.63;;;0.90;;
40150;SDS011;25866;52.420;10.640;2023-04-24T03:23:03;1.52;;;1.00;;
40150;SDS011;25866;52.420;10.640;2023-04-24T03:25:29;4.28;;;1.30;;
40150;SDS011;25866;52.420;10.640;2023-04-24T03:27:55;2.03;;;1.10;;
40150;SDS011;25866;52.420;10.640;2023-04-24T03:30:20;1.52;;;1.10;;
40150;SDS011;25866;52.420;10.640;2023-04-24T03:32:46;1.00;;;0.80;;
40150;SDS011;25866;52.420;10.640;2023-04-24T03:35:12;0.93;;;0.80;;
40150;SDS011;25866;52.420;10.640;2023-04-24T03:37:37;1.88;;;0.73;;
40150;SDS011;25866;52.420;10.640;2023-04-24T03:40:03;4.18;;;1.15;;
40150;SDS011;25866;52.420;10.640;2023-04-24T03:42:31;1.00;;;0.90;;
40150;SDS011;25866;52.420;10.640;2023-04-24T03:44:56;2.70;;;0.90;;
40150;SDS011;25866;52.420;10.640;2023-04-24T03:47:22;4.22;;;1.02;;
40150;SDS011;25866;52.420;10.640;2023-04-24T03:49:48;2.25;;;0.90;;
40150;SDS011;25866;52.420;10.640;2023-04-24T03:52:13;1.55;;;1.02;;
40150;SDS011;25866;52.420;10.640;2023-04-24T03:54:39;2.92;;;1.08;;
40150;SDS011;25866;52.420;10.640;2023-04-24T03:57:05;1.85;;;1.00;;
40150;SDS011;25866;52.420;10.640;2023-04-24T03:59:30;1.85;;;0.93;;
40150;SDS011;25866;52.420;10.640;2023-04-24T04:01:56;1.23;;;1.00;;
40150;SDS011;25866;52.420;10.640;2023-04-24T04:04:22;3.22;;;1.10;;
40150;SDS011;25866;52.420;10.640;2023-04-24T04:06:47;1.70;;;0.90;;
40150;SDS011;25866;52.420;10.640;2023-04-24T04:09:14;3.75;;;0.80;;
40150;SDS011;25866;52.420;10.640;2023-04-24T04:11:42;5.43;;;0.80;;
40150;SDS011;25866;52.420;10.640;2023-04-24T04:14:07;1.48;;;0.70;;
40150;SDS011;25866;52.420;10.640;2023-04-24T04:16:33;1.63;;;1.10;;
40150;SDS011;25866;52.420;10.640;2023-04-24T04:19:01;0.85;;;0.73;;
40150;SDS011;25866;52.420;10.640;2023-04-24T04:21:28;2.00;;;0.80;;
40150;SDS011;25866;52.420;10.640;2023-04-24T04:23:54;3.00;;;0.70;;
40150;SDS011;25866;52.420;10.640;2023-04-24T04:26:19;3.45;;;1.00;;
40150;SDS011;25866;52.420;10.640;2023-04-24T04:28:46;2.22;;;0.80;;
40150;SDS011;25866;52.420;10.640;2023-04-24T04:31:13;3.60;;;0.60;;
40150;SDS011;25866;52.420;10.640;2023-04-24T04:33:38;1.23;;;0.57;;
40150;SDS011;25866;52.420;10.640;2023-04-24T04:36:04;2.60;;;0.70;;
40150;SDS011;25866;52.420;10.640;2023-04-24T04:38:30;1.40;;;0.75;;
40150;SDS011;25866;52.420;10.640;2023-04-24T04:40:58;0.73;;;0.70;;
40150;SDS011;25866;52.420;10.640;2023-04-24T04:43:24;1.15;;;0.65;;
40150;SDS011;25866;52.420;10.640;2023-04-24T04:45:50;0.70;;;0.70;;
40150;SDS011;25866;52.420;10.640;2023-04-24T04:48:17;2.10;;;0.70;;
40150;SDS011;25866;52.420;10.640;2023-04-24T04:50:44;2.13;;;1.00;;
40150;SDS011;25866;52.420;10.640;2023-04-24T04:53:10;2.08;;;0.93;;
40150;SDS011;25866;52.420;10.640;2023-04-24T04:55:36;2.90;;;1.00;;
40150;SDS011;25866;52.420;10.640;2023-04-24T04:58:02;1.05;;;0.80;;
40150;SDS011;25866;52.420;10.640;2023-04-24T05:00:28;2.63;;;1.20;;
40150;SDS011;25866;52.420;10.640;2023-04-24T05:02:59;2.70;;;1.10;;
40150;SDS011;25866;52.420;10.640;2023-04-24T05:05:25;1.85;;;0.80;;
40150;SDS011;25866;52.420;10.640;2023-04-24T05:07:50;1.10;;;0.88;;
40150;SDS011;25866;52.420;10.640;2023-04-24T05:10:16;1.58;;;1.02;;
40150;SDS011;25866;52.420;10.640;2023-04-24T05:12:42;4.18;;;0.90;;
40150;SDS011;25866;52.420;10.640;2023-04-24T05:15:08;3.55;;;1.08;;
40150;SDS011;25866;52.420;10.640;2023-04-24T05:17:39;5.00;;;1.10;;
40150;SDS011;25866;52.420;10.640;2023-04-24T05:20:06;1.60;;;0.73;;
40150;SDS011;25866;52.420;10.640;2023-04-24T05:22:32;2.80;;;0.98;;
40150;SDS011;25866;52.420;10.640;2023-04-24T05:24:58;5.32;;;0.90;;
40150;SDS011;25866;52.420;10.640;2023-04-24T05:27:24;1.10;;;0.80;;
40150;SDS011;25866;52.420;10.640;2023-04-24T05:29:50;0.70;;;0.70;;
40150;SDS011;25866;52.420;10.640;2023-04-24T05:32:16;2.85;;;1.00;;
40150;SDS011;25866;52.420;10.640;2023-04-24T05:34:42;2.10;;;1.10;;
40150;SDS011;25866;52.420;10.640;2023-04-24T05:37:08;2.15;;;0.80;;
40150;SDS011;25866;52.420;10.640;2023-04-24T05:39:35;2.75;;;0.90;;
40150;SDS011;25866;52.420;10.640;2023-04-24T05:42:01;1.88;;;1.00;;
40150;SDS011;25866;52.420;10.640;2023-04-24T05:44:30;0.82;;;0.80;;
40150;SDS011;25866;52.420;10.640;2023-04-24T05:46:56;2.00;;;0.95;;
40150;SDS011;25866;52.420;10.640;2023-04-24T05:49:22;2.33;;;1.00;;
40150;SDS011;25866;52.420;10.640;2023-04-24T05:51:48;1.40;;;0.90;;
40150;SDS011;25866;52.420;10.640;2023-04-24T05:54:14;2.53;;;1.17;;
40150;SDS011;25866;52.420;10.640;2023-04-24T05:56:39;5.43;;;1.10;;
40150;SDS011;25866;52.420;10.640;2023-04-24T05:59:06;4.25;;;1.08;;
40150;SDS011;25866;52.420;10.640;2023-04-24T06:01:32;1.63;;;0.90;;
40150;SDS011;25866;52.420;10.640;2023-04-24T06:03:58;1.60;;;0.93;;
40150;SDS011;25866;52.420;10.640;2023-04-24T06:06:24;2.53;;;0.82;;
40150;SDS011;25866;52.420;10.640;2023-04-24T06:08:50;5.32;;;1.00;;
40150;SDS011;25866;52.420;10.640;2023-04-24T06:11:16;3.03;;;1.13;;
40150;SDS011;25866;52.420;10.640;2023-04-24T06:13:42;1.00;;;0.80;;
40150;SDS011;25866;52.420;10.640;2023-04-24T06:16:08;1.52;;;1.10;;
40150;SDS011;25866;52.420;10.640;2023-04-24T06:18:34;1.13;;;0.77;;
40150;SDS011;25866;52.420;10.640;2023-04-24T06:21:00;1.40;;;0.80;;
40150;SDS011;25866;52.420;10.640;2023-04-24T06:23:25;1.20;;;0.90;;
40150;SDS011;25866;52.420;10.640;2023-04-24T06:25:51;5.60;;;1.00;;
40150;SDS011;25866;52.420;10.640;2023-04-24T06:28:17;3.65;;;0.82;;
40150;SDS011;25866;52.420;10.640;2023-04-24T06:30:43;1.13;;;0.80;;
40150;SDS011;25866;52.420;10.640;2023-04-24T06:33:08;0.82;;;0.80;;
40150;SDS011;25866;52.420;10.640;2023-04-24T06:35:35;1.33;;;0.75;;
40150;SDS011;25866;52.420;10.640;2023-04-24T06:38:01;2.40;;;0.90;;
40150;SDS011;25866;52.420;10.640;2023-04-24T06:40:27;7.43;;;1.13;;
40150;SDS011;25866;52.420;10.640;2023-04-24T06:42:53;1.90;;;0.90;;
40150;SDS011;25866;52.420;10.640;2023-04-24T06:45:18;1.77;;;0.80;;
40150;SDS011;25866;52.420;10.640;2023-04-24T06:47:44;1.90;;;0.93;;
40150;SDS011;25866;52.420;10.640;2023-04-24T06:50:10;1.75;;;0.93;;
40150;SDS011;25866;52.420;10.640;2023-04-24T06:52:36;2.15;;;0.70;;
40150;SDS011;25866;52.420;10.640;2023-04-24T06:55:02;2.47;;;1.10;;
40150;SDS011;25866;52.420;10.640;2023-04-24T06:57:29;1.35;;;0.90;;
40150;SDS011;25866;52.420;10.640;2023-04-24T06:59:55;1.38;;;0.90;;
40150;SDS011;25866;52.420;10.640;2023-04-24T07:02:21;1.13;;;0.80;;
40150;SDS011;25866;52.420;10.640;2023-04-24T07:04:47;4.72;;;0.90;;
40150;SDS011;25866;52.420;10.640;2023-04-24T07:07:13;3.05;;;0.95;;
40150;SDS011;25866;52.420;10.640;2023-04-24T07:09:39;2.75;;;1.00;;
40150;SDS011;25866;52.420;10.640;2023-04-24T07:12:09;3.42;;;0.82;;
40150;SDS011;25866;52.420;10.640;2023-04-24T07:14:38;1.63;;;1.10;;
40150;SDS011;25866;52.420;10.640;2023-04-24T07:17:04;1.83;;;0.90;;
40150;SDS011;25866;52.420;10.640;2023-04-24T07:19:35;1.55;;;0.70;;
40150;SDS011;25866;52.420;10.640;2023-04-24T07:22:01;1.35;;;0.55;;
40150;SDS011;25866;52.420;10.640;2023-04-24T07:24:28;3.65;;;0.77;;
40150;SDS011;25866;52.420;10.640;2023-04-24T07:26:54;1.85;;;0.95;;
40150;SDS011;25866;52.420;10.640;2023-04-24T07:29:20;2.50;;;1.02;;
40150;SDS011;25866;52.420;10.640;2023-04-24T07:31:46;1.65;;;0.82;;
40150;SDS011;25866;52.420;10.640;2023-04-24T07:34:12;1.00;;;0.70;;
40150;SDS011;25866;52.420;10.640;2023-04-24T07:36:38;1.17;;;0.73;;
40150;SDS011;25866;52.420;10.640;2023-04-24T07:39:04;2.53;;;0.85;;
40150;SDS011;25866;52.420;10.640;2023-04-24T07:41:31;1.90;;;0.80;;
40150;SDS011;25866;52.420;10.640;2023-04-24T07:43:56;1.80;;;1.00;;
40150;SDS011;25866;52.420;10.640;2023-04-24T07:46:23;3.03;;;0.73;;
40150;SDS011;25866;52.420;10.640;2023-04-24T07:48:49;2.38;;;0.80;;
40150;SDS011;25866;52.420;10.640;2023-04-24T07:51:16;1.20;;;0.70;;
40150;SDS011;25866;52.420;10.640;2023-04-24T07:53:42;1.00;;;0.63;;
40150;SDS011;25866;52.420;10.640;2023-04-24T07:56:08;0.50;;;0.50;;
40150;SDS011;25866;52.420;10.640;2023-04-24T07:58:34;1.48;;;0.70;;
40150;SDS011;25866;52.420;10.640;2023-04-24T08:01:00;2.25;;;0.80;;
40150;SDS011;25866;52.420;10.640;2023-04-24T08:03:26;1.75;;;0.85;;
40150;SDS011;25866;52.420;10.640;2023-04-24T08:05:51;2.17;;;0.82;;
40150;SDS011;25866;52.420;10.640;2023-04-24T08:08:17;1.55;;;0.90;;
40150;SDS011;25866;52.420;10.640;2023-04-24T08:10:45;1.25;;;1.10;;
40150;SDS011;25866;52.420;10.640;2023-04-24T08:13:12;1.17;;;1.00;;
40150;SDS011;25866;52.420;10.640;2023-04-24T08:15:38;1.27;;;1.17;;
40150;SDS011;25866;52.420;10.640;2023-04-24T08:18:04;2.45;;;1.30;;
40150;SDS011;25866;52.420;10.640;2023-04-24T08:20:30;1.23;;;1.13;;
40150;SDS011;25866;52.420;10.640;2023-04-24T08:22:58;3.33;;;1.33;;
40150;SDS011;25866;52.420;10.640;2023-04-24T08:25:24;1.65;;;1.20;;
40150;SDS011;25866;52.420;10.640;2023-04-24T08:27:50;1.73;;;1.20;;
40150;SDS011;25866;52.420;10.640;2023-04-24T08:30:16;2.25;;;1.23;;
40150;SDS011;25866;52.420;10.640;2023-04-24T08:32:42;3.88;;;1.50;;
40150;SDS011;25866;52.420;10.640;2023-04-24T08:35:08;1.83;;;1.30;;
40150;SDS011;25866;52.420;10.640;2023-04-24T08:37:34;2.60;;;1.70;;
40150;SDS011;25866;52.420;10.640;2023-04-24T08:40:01;1.55;;;1.38;;
40150;SDS011;25866;52.420;10.640;2023-04-24T08:42:31;2.15;;;1.60;;
40150;SDS011;25866;52.420;10.640;2023-04-24T08:44:59;1.65;;;1.45;;
40150;SDS011;25866;52.420;10.640;2023-04-24T08:47:25;2.47;;;1.50;;
40150;SDS011;25866;52.420;10.640;2023-04-24T08:49:52;1.60;;;1.50;;
40150;SDS011;25866;52.420;10.640;2023-04-24T08:52:20;3.65;;;1.60;;
40150;SDS011;25866;52.420;10.640;2023-04-24T08:54:47;1.83;;;1.60;;
40150;SDS011;25866;52.420;10.640;2023-04-24T08:57:13;3.50;;;1.70;;
40150;SDS011;25866;52.420;10.640;2023-04-24T08:59:40;3.13;;;1.77;;
40150;SDS011;25866;52.420;10.640;2023-04-24T09:02:06;2.17;;;1.70;;
40150;SDS011;25866;52.420;10.640;2023-04-24T09:04:36;4.20;;;1.80;;
40150;SDS011;25866;52.420;10.640;2023-04-24T09:07:02;3.95;;;2.20;;
40150;SDS011;25866;52.420;10.640;2023-04-24T09:09:31;2.50;;;2.00;;
40150;SDS011;25866;52.420;10.640;2023-04-24T09:11:58;2.60;;;2.28;;
40150;SDS011;25866;52.420;10.640;2023-04-24T09:14:25;3.70;;;2.40;;
40150;SDS011;25866;52.420;10.640;2023-04-24T09:16:52;3.72;;;2.35;;
40150;SDS011;25866;52.420;10.640;2023-04-24T09:19:18;2.85;;;2.40;;
40150;SDS011;25866;52.420;10.640;2023-04-24T09:21:46;3.50;;;2.83;;
40150;SDS011;25866;52.420;10.640;2023-04-24T09:24:16;3.00;;;2.70;;
40150;SDS011;25866;52.420;10.640;2023-04-24T09:26:45;5.03;;;2.75;;
40150;SDS011;25866;52.420;10.640;2023-04-24T09:29:15;2.90;;;2.47;;
40150;SDS011;25866;52.420;10.640;2023-04-24T09:31:42;4.13;;;3.17;;
40150;SDS011;25866;52.420;10.640;2023-04-24T09:34:08;5.00;;;3.08;;
40150;SDS011;25866;52.420;10.640;2023-04-24T09:36:34;4.78;;;3.20;;
40150;SDS011;25866;52.420;10.640;2023-04-24T09:39:03;5.18;;;3.72;;
40150;SDS011;25866;52.420;10.640;2023-04-24T09:41:31;3.97;;;3.45;;
40150;SDS011;25866;52.420;10.640;2023-04-24T09:44:01;7.90;;;4.30;;
40150;SDS011;25866;52.420;10.640;2023-04-24T09:46:41;3.35;;;2.97;;
40150;SDS011;25866;52.420;10.640;2023-04-24T09:49:16;3.75;;;3.13;;
40150;SDS011;25866;52.420;10.640;2023-04-24T09:51:48;4.85;;;2.85;;
40150;SDS011;25866;52.420;10.640;2023-04-24T09:54:18;3.67;;;3.00;;
40150;SDS011;25866;52.420;10.640;2023-04-24T09:56:46;4.13;;;2.83;;
40150;SDS011;25866;52.420;10.640;2023-04-24T09:59:14;3.67;;;3.05;;
40150;SDS011;25866;52.420;10.640;2023-04-24T10:01:40;5.28;;;3.35;;
40150;SDS011;25866;52.420;10.640;2023-04-24T10:04:20;3.17;;;2.88;;
40150;SDS011;25866;52.420;10.640;2023-04-24T10:06:51;3.70;;;2.70;;
40150;SDS011;25866;52.420;10.640;2023-04-24T10:09:19;3.60;;;2.70;;
40150;SDS011;25866;52.420;10.640;2023-04-24T10:11:47;2.55;;;2.35;;
40150;SDS011;25866;52.420;10.640;2023-04-24T10:14:17;3.45;;;2.75;;
40150;SDS011;25866;52.420;10.640;2023-04-24T10:16:46;3.45;;;2.53;;
40150;SDS011;25866;52.420;10.640;2023-04-24T10:19:12;4.22;;;2.38;;
40150;SDS011;25866;52.420;10.640;2023-04-24T10:21:40;3.00;;;2.17;;
40150;SDS011;25866;52.420;10.640;2023-04-24T10:24:08;5.53;;;2.22;;
40150;SDS011;25866;52.420;10.640;2023-04-24T10:26:35;4.60;;;1.85;;
40150;SDS011;25866;52.420;10.640;2023-04-24T10:29:02;2.20;;;2.00;;
40150;SDS011;25866;52.420;10.640;2023-04-24T10:31:34;2.38;;;1.92;;
40150;SDS011;25866;52.420;10.640;2023-04-24T10:34:01;2.42;;;1.90;;
40150;SDS011;25866;52.420;10.640;2023-04-24T10:36:28;2.03;;;1.80;;
40150;SDS011;25866;52.420;10.640;2023-04-24T10:38:57;2.63;;;2.13;;
40150;SDS011;25866;52.420;10.640;2023-04-24T10:41:26;2.50;;;1.67;;
40150;SDS011;25866;52.420;10.640;2023-04-24T10:44:27;5.10;;;2.22;;
40150;SDS011;25866;52.420;10.640;2023-04-24T10:46:47;3.95;;;2.08;;
40150;SDS011;25866;52.420;10.640;2023-04-24T10:49:31;2.22;;;1.80;;
40150;SDS011;25866;52.420;10.640;2023-04-24T10:52:01;2.35;;;2.05;;
40150;SDS011;25866;52.420;10.640;2023-04-24T10:54:41;2.40;;;1.90;;
40150;SDS011;25866;52.420;10.640;2023-04-24T10:59:51;3.35;;;1.90;;
40150;SDS011;25866;52.420;10.640;2023-04-24T11:02:37;2.65;;;2.10;;
40150;SDS011;25866;52.420;10.640;2023-04-24T11:05:05;4.88;;;1.83;;
40150;SDS011;25866;52.420;10.640;2023-04-24T11:10:39;2.58;;;1.90;;
40150;SDS011;25866;52.420;10.640;2023-04-24T11:15:41;2.58;;;1.90;;
40150;SDS011;25866;52.420;10.640;2023-04-24T11:18:12;2.75;;;1.80;;
40150;SDS011;25866;52.420;10.640;2023-04-24T11:20:42;2.17;;;1.70;;
40150;SDS011;25866;52.420;10.640;2023-04-24T11:23:12;3.38;;;1.73;;
40150;SDS011;25866;52.420;10.640;2023-04-24T11:25:39;3.20;;;1.75;;
40150;SDS011;25866;52.420;10.640;2023-04-24T11:28:06;1.98;;;1.60;;
40150;SDS011;25866;52.420;10.640;2023-04-24T11:30:32;1.70;;;1.35;;
40150;SDS011;25866;52.420;10.640;2023-04-24T11:33:04;1.70;;;1.40;;
40150;SDS011;25866;52.420;10.640;2023-04-24T11:35:30;3.78;;;1.90;;
40150;SDS011;25866;52.420;10.640;2023-04-24T11:38:02;3.78;;;1.95;;
40150;SDS011;25866;52.420;10.640;2023-04-24T11:40:29;2.97;;;1.70;;
40150;SDS011;25866;52.420;10.640;2023-04-24T11:42:55;2.13;;;1.52;;
40150;SDS011;25866;52.420;10.640;2023-04-24T11:45:25;2.35;;;1.50;;
40150;SDS011;25866;52.420;10.640;2023-04-24T11:47:52;1.60;;;1.40;;
40150;SDS011;25866;52.420;10.640;2023-04-24T11:50:19;2.47;;;1.38;;
40150;SDS011;25866;52.420;10.640;2023-04-24T11:52:47;1.65;;;1.20;;
40150;SDS011;25866;52.420;10.640;2023-04-24T11:57:44;1.45;;;0.82;;
40150;SDS011;25866;52.420;10.640;2023-04-24T12:00:28;1.83;;;1.13;;
40150;SDS011;25866;52.420;10.640;2023-04-24T12:03:06;1.38;;;1.15;;
40150;SDS011;25866;52.420;10.640;2023-04-24T12:05:33;1.13;;;1.00;;
40150;SDS011;25866;52.420;10.640;2023-04-24T12:07:59;2.38;;;1.02;;
40150;SDS011;25866;52.420;10.640;2023-04-24T12:10:26;1.52;;;1.10;;
40150;SDS011;25866;52.420;10.640;2023-04-24T12:12:55;1.73;;;1.13;;
40150;SDS011;25866;52.420;10.640;2023-04-24T12:15:22;2.17;;;1.00;;
40150;SDS011;25866;52.420;10.640;2023-04-24T12:17:50;2.25;;;0.93;;
40150;SDS011;25866;52.420;10.640;2023-04-24T12:20:17;1.27;;;1.10;;
40150;SDS011;25866;52.420;10.640;2023-04-24T12:22:58;1.15;;;1.02;;
40150;SDS011;25866;52.420;10.640;2023-04-24T12:25:26;2.60;;;1.10;;
40150;SDS011;25866;52.420;10.640;2023-04-24T12:30:32;1.50;;;1.00;;
40150;SDS011;25866;52.420;10.640;2023-04-24T12:32:59;1.48;;;1.10;;
40150;SDS011;25866;52.420;10.640;2023-04-24T12:35:27;1.30;;;0.98;;
40150;SDS011;25866;52.420;10.640;2023-04-24T12:37:54;1.27;;;1.17;;
40150;SDS011;25866;52.420;10.640;2023-04-24T12:40:21;1.10;;;0.95;;
40150;SDS011;25866;52.420;10.640;2023-04-24T12:42:50;2.97;;;1.08;;
40150;SDS011;25866;52.420;10.640;2023-04-24T12:45:17;1.17;;;1.08;;
40150;SDS011;25866;52.420;10.640;2023-04-24T12:47:44;1.83;;;1.10;;
40150;SDS011;25866;52.420;10.640;2023-04-24T12:50:12;0.90;;;0.90;;
40150;SDS011;25866;52.420;10.640;2023-04-24T12:52:38;2.90;;;1.08;;
40150;SDS011;25866;52.420;10.640;2023-04-24T12:55:05;1.35;;;1.20;;
40150;SDS011;25866;52.420;10.640;2023-04-24T12:57:35;1.15;;;1.05;;
40150;SDS011;25866;52.420;10.640;2023-04-24T13:00:02;3.70;;;1.20;;
40150;SDS011;25866;52.420;10.640;2023-04-24T13:02:30;2.45;;;1.50;;
40150;SDS011;25866;52.420;10.640;2023-04-24T13:04:59;1.30;;;1.13;;
40150;SDS011;25866;52.420;10.640;2023-04-24T13:07:25;1.77;;;0.93;;
40150;SDS011;25866;52.420;10.640;2023-04-24T13:09:52;1.67;;;1.20;;
40150;SDS011;25866;52.420;10.640;2023-04-24T13:12:19;1.30;;;1.10;;
40150;SDS011;25866;52.420;10.640;2023-04-24T13:14:46;2.75;;;0.80;;
40150;SDS011;25866;52.420;10.640;2023-04-24T13:17:12;0.50;;;0.50;;
40150;SDS011;25866;52.420;10.640;2023-04-24T13:19:39;0.52;;;0.50;;
40150;SDS011;25866;52.420;10.640;2023-04-24T13:22:06;1.00;;;0.60;;
40150;SDS011;25866;52.420;10.640;2023-04-24T13:24:33;4.57;;;1.45;;
40150;SDS011;25866;52.420;10.640;2023-04-24T13:26:59;0.70;;;0.70;;
40150;SDS011;25866;52.420;10.640;2023-04-24T13:29:26;1.27;;;1.02;;
40150;SDS011;25866;52.420;10.640;2023-04-24T13:31:52;0.75;;;0.70;;
40150;SDS011;25866;52.420;10.640;2023-04-24T13:34:22;2.78;;;0.80;;
40150;SDS011;25866;52.420;10.640;2023-04-24T13:36:53;0.77;;;0.70;;
40150;SDS011;25866;52.420;10.640;2023-04-24T13:39:20;2.55;;;0.90;;
40150;SDS011;25866;52.420;10.640;2023-04-24T13:41:46;1.85;;;0.63;;
40150;SDS011;25866;52.420;10.640;2023-04-24T13:44:13;0.70;;;0.70;;
40150;SDS011;25866;52.420;10.640;2023-04-24T13:46:40;2.13;;;0.60;;
40150;SDS011;25866;52.420;10.640;2023-04-24T13:49:06;1.50;;;0.60;;
40150;SDS011;25866;52.420;10.640;2023-04-24T13:51:32;0.77;;;0.60;;
40150;SDS011;25866;52.420;10.640;2023-04-24T13:53:58;0.80;;;0.70;;
40150;SDS011;25866;52.420;10.640;2023-04-24T13:56:24;1.35;;;0.90;;
40150;SDS011;25866;52.420;10.640;2023-04-24T13:58:51;0.90;;;0.90;;
40150;SDS011;25866;52.420;10.640;2023-04-24T14:01:18;1.13;;;0.90;;
40150;SDS011;25866;52.420;10.640;2023-04-24T14:03:45;1.10;;;0.80;;
40150;SDS011;25866;52.420;10.640;2023-04-24T14:06:11;0.98;;;0.88;;
40150;SDS011;25866;52.420;10.640;2023-04-24T14:08:37;2.72;;;1.20;;
40150;SDS011;25866;52.420;10.640;2023-04-24T14:11:03;2.55;;;1.60;;
40150;SDS011;25866;52.420;10.640;2023-04-24T14:13:29;3.08;;;1.30;;
40150;SDS011;25866;52.420;10.640;2023-04-24T14:15:55;2.67;;;1.30;;
40150;SDS011;25866;52.420;10.640;2023-04-24T14:18:21;3.88;;;1.30;;
40150;SDS011;25866;52.420;10.640;2023-04-24T14:20:46;2.08;;;1.25;;
40150;SDS011;25866;52.420;10.640;2023-04-24T14:23:12;3.90;;;1.27;;
40150;SDS011;25866;52.420;10.640;2023-04-24T14:25:38;1.33;;;1.20;;
40150;SDS011;25866;52.420;10.640;2023-04-24T14:28:03;1.23;;;1.08;;
40150;SDS011;25866;52.420;10.640;2023-04-24T14:30:31;1.40;;;1.10;;
40150;SDS011;25866;52.420;10.640;2023-04-24T14:32:56;1.00;;;0.90;;
40150;SDS011;25866;52.420;10.640;2023-04-24T14:35:22;1.88;;;1.00;;
40150;SDS011;25866;52.420;10.640;2023-04-24T14:37:48;3.10;;;0.80;;
40150;SDS011;25866;52.420;10.640;2023-04-24T14:40:14;0.70;;;0.70;;
40150;SDS011;25866;52.420;10.640;2023-04-24T14:42:40;0.60;;;0.60;;
40150;SDS011;25866;52.420;10.640;2023-04-24T14:45:06;1.08;;;0.75;;